createdAt,value
2019-02-27T00:00:28.803Z,99554.13
2019-02-27T00:03:36.548Z,99564.09
2019-02-27T00:06:42.311Z,99563.81
2019-02-27T00:09:48.087Z,99559.64
2019-02-27T00:12:54.960Z,99553.26
2019-02-27T00:16:00.839Z,99556.94
2019-02-27T00:19:06.962Z,99556.47
2019-02-27T00:22:14.945Z,99541.97
2019-02-27T00:25:20.440Z,99546.75
2019-02-27T00:28:26.397Z,99543.78
2019-02-27T00:31:32.152Z,99548.56
2019-02-27T00:34:37.928Z,99550.66
2019-02-27T00:37:43.783Z,99548.29
2019-02-27T00:40:49.541Z,99542.45
2019-02-27T00:43:55.309Z,99544.69
2019-02-27T00:47:01.091Z,99552.02
2019-02-27T00:50:07.126Z,99542.11
2019-02-27T00:53:12.908Z,99544.38
2019-02-27T00:56:18.681Z,99542.25
2019-02-27T00:59:24.447Z,99546.63
2019-02-27T01:02:30.406Z,99542.73
2019-02-27T01:05:36.229Z,99536.37
2019-02-27T01:08:42.105Z,99533.59
2019-02-27T01:11:51.512Z,99532.11
2019-02-27T01:14:55.430Z,99537.38
2019-02-27T01:18:01.320Z,99532.08
2019-02-27T01:21:07.082Z,99530.02
2019-02-27T01:24:14.984Z,99531.02
2019-02-27T01:27:20.336Z,99528.30
2019-02-27T01:30:26.108Z,99529.59
2019-02-27T01:33:31.864Z,99538.83
2019-02-27T01:36:37.623Z,99537.36
2019-02-27T01:39:44.052Z,99540.48
2019-02-27T01:42:50.494Z,99539.73
2019-02-27T01:45:56.371Z,99539.17
2019-02-27T01:49:02.163Z,99540.22
2019-02-27T01:52:08.119Z,99544.56
2019-02-27T01:55:13.993Z,99547.30
2019-02-27T01:58:19.774Z,99551.30
2019-02-27T02:01:29.829Z,99551.53
2019-02-27T02:04:33.065Z,99550.05
2019-02-27T02:07:40.290Z,99545.23
2019-02-27T02:10:46.584Z,99548.43
2019-02-27T02:14:03.442Z,99548.64
2019-02-27T02:17:38.165Z,99535.45
2019-02-27T02:21:06.449Z,99537.77
2019-02-27T02:25:17.349Z,99533.77
2019-02-27T02:28:52.941Z,99541.24
2019-02-27T02:32:29.399Z,99541.92
2019-02-27T02:36:24.801Z,99533.09
2019-02-27T02:39:54.199Z,99535.84
2019-02-27T02:44:03.676Z,99540.27
2019-02-27T02:47:21.269Z,99538.51
2019-02-27T02:50:54.312Z,99541.30
2019-02-27T02:54:28.431Z,99540.47
2019-02-27T02:58:12.344Z,99555.86
2019-02-27T03:01:45.651Z,99565.05
2019-02-27T03:05:33.022Z,99571.59
2019-02-27T03:08:56.213Z,99564.84
2019-02-27T03:12:44.646Z,99565.97
2019-02-27T03:16:31.035Z,99572.37
2019-02-27T03:19:46.313Z,99569.80
2019-02-27T03:23:38.520Z,99573.05
2019-02-27T03:27:29.400Z,99576.63
2019-02-27T03:31:18.130Z,99565.41
2019-02-27T03:34:51.461Z,99570.11
2019-02-27T03:38:47.084Z,99571.34
2019-02-27T03:42:48.516Z,99571.05
2019-02-27T03:46:21.094Z,99571.90
2019-02-27T03:50:15.018Z,99565.46
2019-02-27T03:53:57.457Z,99566.58
2019-02-27T03:57:20.950Z,99572.25
2019-02-27T04:00:55.690Z,99577.34
2019-02-27T04:04:57.086Z,99586.66
2019-02-27T04:08:23.694Z,99591.08
2019-02-27T04:11:30.192Z,99592.62
2019-02-27T04:14:40.074Z,99603.66
2019-02-27T04:17:42.056Z,99607.30
2019-02-27T04:20:50.842Z,99611.71
2019-02-27T04:23:55.751Z,99604.84
2019-02-27T04:27:01.524Z,99613.22
2019-02-27T04:30:07.890Z,99610.05
2019-02-27T04:33:13.649Z,99602.05
2019-02-27T04:36:19.410Z,99615.03
2019-02-27T04:39:25.195Z,99606.09
2019-02-27T04:42:31.165Z,99610.41
2019-02-27T04:45:37.036Z,99618.12
2019-02-27T04:48:42.793Z,99619.25
2019-02-27T04:51:50.578Z,99628.36
2019-02-27T04:54:56.025Z,99621.76
2019-02-27T04:58:01.871Z,99635.74
2019-02-27T05:01:07.701Z,99643.37
2019-02-27T05:04:13.519Z,99641.41
2019-02-27T05:07:20.397Z,99647.55
2019-02-27T05:10:26.713Z,99648.72
2019-02-27T05:13:34.462Z,99649.45
2019-02-27T05:16:40.099Z,99655.15
2019-02-27T05:19:45.878Z,99659.05
2019-02-27T05:22:51.659Z,99662.11
2019-02-27T05:25:57.421Z,99665.36
2019-02-27T05:29:03.309Z,99670.66
2019-02-27T05:32:10.071Z,99676.94
2019-02-27T05:35:15.826Z,99683.20
2019-02-27T05:38:21.589Z,99695.03
2019-02-27T05:41:27.393Z,99694.18
2019-02-27T05:44:33.227Z,99696.33
2019-02-27T05:47:39.007Z,99694.28
2019-02-27T05:50:44.759Z,99700.71
2019-02-27T05:53:50.510Z,99711.86
2019-02-27T05:56:56.386Z,99719.19
2019-02-27T06:00:03.382Z,99725.70
2019-02-27T06:03:09.611Z,99731.55
2019-02-27T06:06:16.489Z,99744.23
2019-02-27T06:09:22.302Z,99749.34
2019-02-27T06:12:28.087Z,99753.66
2019-02-27T06:15:33.864Z,99758.91
2019-02-27T06:18:39.647Z,99768.80
2019-02-27T06:21:45.428Z,99771.14
2019-02-27T06:24:51.196Z,99778.00
2019-02-27T06:27:56.972Z,99782.81
2019-02-27T06:31:03.227Z,99779.11
2019-02-27T06:34:09.111Z,99774.30
2019-02-27T06:37:15.502Z,99786.52
2019-02-27T06:40:21.894Z,99794.28
2019-02-27T06:43:27.947Z,99785.15
2019-02-27T06:46:33.717Z,99788.70
2019-02-27T06:49:39.510Z,99797.58
2019-02-27T06:52:45.376Z,99796.80
2019-02-27T06:55:51.125Z,99802.20
2019-02-27T06:58:56.899Z,99799.78
2019-02-27T07:02:02.671Z,99795.80
2019-02-27T07:05:13.246Z,99802.99
2019-02-27T07:08:17.659Z,99800.20
2019-02-27T07:11:23.472Z,99804.08
2019-02-27T07:14:29.378Z,99810.44
2019-02-27T07:17:35.143Z,99813.64
2019-02-27T07:20:40.946Z,99814.02
2019-02-27T07:23:46.837Z,99820.51
2019-02-27T07:26:52.606Z,99821.98
2019-02-27T07:29:58.362Z,99813.44
2019-02-27T07:33:06.736Z,99821.47
2019-02-27T07:36:11.587Z,99817.98
2019-02-27T07:39:17.408Z,99825.41
2019-02-27T07:42:23.196Z,99830.72
2019-02-27T07:45:29.025Z,99831.64
2019-02-27T07:48:34.872Z,99833.67
2019-02-27T07:51:40.652Z,99834.88
2019-02-27T07:54:46.449Z,99828.80
2019-02-27T07:57:52.203Z,99836.23
2019-02-27T08:00:58.050Z,99831.47
2019-02-27T08:04:03.922Z,99839.40
2019-02-27T08:07:10.056Z,99836.73
2019-02-27T08:10:18.873Z,99838.89
2019-02-27T08:13:27.064Z,99847.18
2019-02-27T08:16:32.200Z,99840.14
2019-02-27T08:19:37.986Z,99846.28
2019-02-27T08:22:44.235Z,99851.48
2019-02-27T08:25:50.060Z,99851.61
2019-02-27T08:28:55.936Z,99848.43
2019-02-27T08:32:01.821Z,99855.22
2019-02-27T08:35:08.938Z,99861.61
2019-02-27T08:38:14.762Z,99864.52
2019-02-27T08:41:20.545Z,99857.83
2019-02-27T08:44:26.303Z,99866.92
2019-02-27T08:47:33.653Z,99877.02
2019-02-27T08:50:39.626Z,99870.98
2019-02-27T08:53:45.454Z,99877.94
2019-02-27T08:56:51.204Z,99882.97
2019-02-27T08:59:57.004Z,99885.73
2019-02-27T09:03:03.753Z,99883.61
2019-02-27T09:06:09.701Z,99882.58
2019-02-27T09:09:17.998Z,99893.27
2019-02-27T09:12:23.218Z,99887.17
2019-02-27T09:15:28.982Z,99888.89
2019-02-27T09:18:36.635Z,99892.31
2019-02-27T09:21:42.256Z,99898.09
2019-02-27T09:24:48.015Z,99899.63
2019-02-27T09:27:54.003Z,99912.47
2019-02-27T09:31:03.291Z,99903.08
2019-02-27T09:34:07.400Z,99913.93
2019-02-27T09:37:13.853Z,99917.70
2019-02-27T09:40:20.352Z,99911.89
2019-02-27T09:43:27.367Z,99921.58
2019-02-27T09:46:33.663Z,99927.64
2019-02-27T09:49:40.798Z,99932.05
2019-02-27T09:52:46.927Z,99935.69
2019-02-27T09:55:54.278Z,99935.59
2019-02-27T09:59:00.461Z,99938.05
2019-02-27T10:02:09.270Z,99942.12
2019-02-27T10:05:15.212Z,99942.30
2019-02-27T10:08:21.117Z,99938.36
2019-02-27T10:11:26.898Z,99946.23
2019-02-27T10:14:32.653Z,99942.42
2019-02-27T10:17:41.021Z,99945.00
2019-02-27T10:20:46.047Z,99947.80
2019-02-27T10:23:51.805Z,99948.30
2019-02-27T10:26:57.586Z,99952.19
2019-02-27T10:30:11.366Z,99951.57
2019-02-27T10:33:11.931Z,99959.12
2019-02-27T10:36:17.816Z,99956.11
2019-02-27T10:39:23.583Z,99954.03
2019-02-27T10:42:29.411Z,99955.04
2019-02-27T10:45:35.347Z,99946.76
2019-02-27T10:48:41.712Z,99943.20
2019-02-27T10:51:47.599Z,99942.88
2019-02-27T10:54:53.403Z,99943.97
2019-02-27T10:57:59.206Z,99953.99
2019-02-27T11:01:05.096Z,99947.89
2019-02-27T11:04:12.106Z,99954.41
2019-02-27T11:07:18.072Z,99958.12
2019-02-27T11:10:24.531Z,99952.40
2019-02-27T11:13:30.658Z,99957.11
2019-02-27T11:16:36.452Z,99955.67
2019-02-27T11:19:42.222Z,99952.38
2019-02-27T11:22:48.176Z,99952.68
2019-02-27T11:25:56.945Z,99958.30
2019-02-27T11:29:01.644Z,99956.77
2019-02-27T11:32:07.617Z,99960.67
2019-02-27T11:35:14.217Z,99965.71
2019-02-27T11:38:24.487Z,99962.25
2019-02-27T11:41:27.537Z,99960.58
2019-02-27T11:44:33.517Z,99964.94
2019-02-27T11:47:44.705Z,99964.20
2019-02-27T11:50:46.826Z,99951.42
2019-02-27T11:53:52.591Z,99958.28
2019-02-27T11:56:58.519Z,99952.45
2019-02-27T12:00:04.794Z,99947.97
2019-02-27T12:03:12.245Z,99955.63
2019-02-27T12:06:18.000Z,99952.45
2019-02-27T12:09:23.960Z,99962.95
2019-02-27T12:12:29.845Z,99964.14
2019-02-27T12:15:35.787Z,99970.36
2019-02-27T12:18:44.774Z,99960.72
2019-02-27T12:21:50.572Z,99957.02
2019-02-27T12:24:58.235Z,99955.48
2019-02-27T12:28:05.187Z,99953.86
2019-02-27T12:31:14.241Z,99945.93
2019-02-27T12:34:18.996Z,99938.41
2019-02-27T12:37:28.329Z,99942.20
2019-02-27T12:40:32.322Z,99937.48
2019-02-27T12:43:38.085Z,99941.70
2019-02-27T12:46:43.839Z,99939.97
2019-02-27T12:49:51.526Z,99941.23
2019-02-27T12:52:57.377Z,99936.78
2019-02-27T12:56:03.154Z,99945.45
2019-02-27T12:59:08.938Z,99944.16
2019-02-27T13:02:14.730Z,99948.48
2019-02-27T13:05:20.693Z,99939.03
2019-02-27T13:08:26.443Z,99940.70
2019-02-27T13:11:32.251Z,99939.60
2019-02-27T13:14:38.135Z,99935.78
2019-02-27T13:17:44.104Z,99940.31
2019-02-27T13:20:49.971Z,99951.45
2019-02-27T13:23:55.891Z,99949.64
2019-02-27T13:27:01.633Z,99953.33
2019-02-27T13:30:10.076Z,99951.34
2019-02-27T13:33:15.914Z,99956.27
2019-02-27T13:36:21.872Z,99960.75
2019-02-27T13:39:27.647Z,99961.25
2019-02-27T13:42:33.394Z,99962.94
2019-02-27T13:45:39.187Z,99963.99
2019-02-27T13:48:44.962Z,99964.00
2019-02-27T13:51:50.721Z,99958.64
2019-02-27T13:54:56.521Z,99962.63
2019-02-27T13:58:03.724Z,99963.22
2019-02-27T14:01:12.048Z,99959.58
2019-02-27T14:04:21.858Z,99960.84
2019-02-27T14:07:24.986Z,99966.73
2019-02-27T14:10:31.128Z,99968.80
2019-02-27T14:13:36.916Z,99964.88
2019-02-27T14:16:42.814Z,99963.99
2019-02-27T14:19:48.570Z,99969.78
2019-02-27T14:22:54.430Z,99968.98
2019-02-27T14:26:00.207Z,99964.32
2019-02-27T14:29:07.081Z,99962.91
2019-02-27T14:32:14.477Z,99960.27
2019-02-27T14:35:20.526Z,99964.53
2019-02-27T14:38:26.398Z,99963.73
2019-02-27T14:41:32.258Z,99954.47
2019-02-27T14:44:38.054Z,99954.81
2019-02-27T14:47:43.837Z,99959.47
2019-02-27T14:50:49.643Z,99962.81
2019-02-27T14:53:55.923Z,99963.37
2019-02-27T14:57:01.791Z,99963.05
2019-02-27T15:00:11.145Z,99965.78
2019-02-27T15:03:16.990Z,99958.02
2019-02-27T15:06:22.763Z,99963.39
2019-02-27T15:09:28.541Z,99958.34
2019-02-27T15:12:34.312Z,99959.33
2019-02-27T15:15:43.156Z,99951.70
2019-02-27T15:18:47.674Z,99949.63
2019-02-27T15:21:53.494Z,99953.75
2019-02-27T15:24:59.782Z,99957.95
2019-02-27T15:28:05.764Z,99946.98
2019-02-27T15:31:11.688Z,99951.91
2019-02-27T15:34:17.556Z,99949.05
2019-02-27T15:37:23.530Z,99949.84
2019-02-27T15:40:30.295Z,99947.58
2019-02-27T15:43:36.172Z,99949.05
2019-02-27T15:46:41.912Z,99943.80
2019-02-27T15:49:48.691Z,99947.29
2019-02-27T15:52:55.269Z,99945.00
2019-02-27T15:56:01.076Z,99947.69
2019-02-27T15:59:08.336Z,99955.16
2019-02-27T16:02:14.343Z,99967.71
2019-02-27T16:05:20.345Z,99960.92
2019-02-27T16:08:26.175Z,99957.23
2019-02-27T16:11:31.971Z,99953.98
2019-02-27T16:14:40.217Z,99953.52
2019-02-27T16:17:45.209Z,99952.72
2019-02-27T16:20:50.990Z,99957.05
2019-02-27T16:23:56.782Z,99959.91
2019-02-27T16:27:03.751Z,99968.08
2019-02-27T16:30:12.867Z,99963.66
2019-02-27T16:33:23.028Z,99966.53
2019-02-27T16:36:35.717Z,99970.66
2019-02-27T16:39:34.161Z,99968.66
2019-02-27T16:42:40.190Z,99974.88
2019-02-27T16:45:46.111Z,99973.65
2019-02-27T16:48:51.902Z,99975.84
2019-02-27T16:51:57.929Z,99980.71
2019-02-27T16:55:03.765Z,99983.45
2019-02-27T16:58:09.556Z,99980.23
2019-02-27T17:01:15.439Z,99986.05
2019-02-27T17:04:21.228Z,99988.16
2019-02-27T17:07:26.992Z,99990.22
2019-02-27T17:10:32.911Z,99989.61
2019-02-27T17:13:38.676Z,99986.81
2019-02-27T17:16:45.482Z,99990.33
2019-02-27T17:19:53.035Z,99991.14
2019-02-27T17:22:59.203Z,99987.27
2019-02-27T17:26:05.056Z,99982.53
2019-02-27T17:29:10.838Z,99982.80
2019-02-27T17:32:16.632Z,99975.70
2019-02-27T17:35:23.604Z,99971.45
2019-02-27T17:38:30.147Z,99972.03
2019-02-27T17:41:35.914Z,99975.06
2019-02-27T17:44:41.906Z,99978.08
2019-02-27T17:47:47.882Z,99971.44
2019-02-27T17:50:54.673Z,99964.08
2019-02-27T17:54:00.442Z,99969.16
2019-02-27T17:57:06.382Z,99968.09
2019-02-27T18:00:18.429Z,99977.39
2019-02-27T18:03:24.999Z,99975.73
2019-02-27T18:06:31.184Z,99979.99
2019-02-27T18:09:40.333Z,99984.08
2019-02-27T18:12:45.819Z,99989.20
2019-02-27T18:15:53.274Z,99995.53
2019-02-27T18:18:59.392Z,99994.84
2019-02-27T18:22:05.396Z,99996.28
2019-02-27T18:25:11.797Z,99994.07
2019-02-27T18:28:17.615Z,99990.52
2019-02-27T18:31:26.584Z,99993.59
2019-02-27T18:34:31.134Z,99989.28
2019-02-27T18:37:37.318Z,99987.00
2019-02-27T18:40:43.671Z,99989.88
2019-02-27T18:43:49.567Z,99991.31
2019-02-27T18:46:56.206Z,99981.55
2019-02-27T18:50:02.956Z,99984.92
2019-02-27T18:53:12.928Z,99978.53
2019-02-27T18:56:16.397Z,99972.68
2019-02-27T18:59:29.352Z,99982.84
2019-02-27T19:02:32.885Z,99989.14
2019-02-27T19:05:41.750Z,99989.09
2019-02-27T19:08:46.361Z,99996.56
2019-02-27T19:11:52.271Z,99997.70
2019-02-27T19:14:58.185Z,99990.44
2019-02-27T19:18:06.541Z,99986.91
2019-02-27T19:21:11.968Z,99993.08
2019-02-27T19:24:17.943Z,99994.29
2019-02-27T19:27:23.828Z,99997.06
2019-02-27T19:30:29.945Z,99996.70
2019-02-27T19:33:36.526Z,99994.71
2019-02-27T19:36:42.962Z,99979.06
2019-02-27T19:39:48.953Z,99978.84
2019-02-27T19:42:57.019Z,99978.70
2019-02-27T19:46:02.927Z,99979.95
2019-02-27T19:49:08.823Z,99974.03
2019-02-27T19:52:14.791Z,99966.51
2019-02-27T19:55:26.521Z,99967.48
2019-02-27T19:58:29.489Z,99958.55
2019-02-27T20:01:35.274Z,99961.47
2019-02-27T20:04:43.689Z,99955.95
2019-02-27T20:07:50.487Z,99966.61
2019-02-27T20:10:56.530Z,99968.80
2019-02-27T20:14:03.207Z,99967.27
2019-02-27T20:17:09.193Z,99963.78
2019-02-27T20:20:15.823Z,99959.73
2019-02-27T20:23:21.603Z,99960.25
2019-02-27T20:26:27.376Z,99960.58
2019-02-27T20:29:33.265Z,99964.65
2019-02-27T20:32:39.048Z,99963.47
2019-02-27T20:35:44.801Z,99961.48
2019-02-27T20:38:51.725Z,99957.19
2019-02-27T20:41:57.640Z,99954.38
2019-02-27T20:45:03.636Z,99949.52
2019-02-27T20:48:09.996Z,99944.92
2019-02-27T20:51:15.764Z,99941.90
2019-02-27T20:54:21.530Z,99935.13
2019-02-27T20:57:27.321Z,99928.31
2019-02-27T21:00:36.097Z,99921.87
2019-02-27T21:03:40.761Z,99922.90
2019-02-27T21:06:47.657Z,99914.41
2019-02-27T21:09:53.973Z,99904.17
2019-02-27T21:12:59.867Z,99909.25
2019-02-27T21:16:09.465Z,99906.77
2019-02-27T21:19:13.338Z,99898.16
2019-02-27T21:22:19.217Z,99890.84
2019-02-27T21:25:24.990Z,99889.31
2019-02-27T21:28:30.770Z,99886.36
2019-02-27T21:31:36.556Z,99877.84
2019-02-27T21:34:42.335Z,99876.68
2019-02-27T21:37:48.176Z,99878.13
2019-02-27T21:40:54.932Z,99874.22
2019-02-27T21:44:00.721Z,99865.36
2019-02-27T21:47:07.684Z,99861.11
2019-02-27T21:50:15.340Z,99857.33
2019-02-27T21:53:21.110Z,99852.95
2019-02-27T21:56:26.879Z,99847.16
2019-02-27T21:59:32.633Z,99850.23
2019-02-27T22:02:38.391Z,99851.42
2019-02-27T22:05:45.169Z,99842.55
2019-02-27T22:08:51.062Z,99845.50
2019-02-27T22:11:58.132Z,99843.98
2019-02-27T22:15:04.640Z,99837.48
2019-02-27T22:18:12.113Z,99835.01
2019-02-27T22:21:17.954Z,99829.45
2019-02-27T22:24:23.698Z,99829.12
2019-02-27T22:27:29.487Z,99831.33
2019-02-27T22:30:35.375Z,99834.67
2019-02-27T22:33:41.202Z,99828.64
2019-02-27T22:36:47.144Z,99831.22
2019-02-27T22:39:53.199Z,99832.17
2019-02-27T22:42:59.176Z,99828.28
2019-02-27T22:46:05.111Z,99830.28
2019-02-27T22:49:11.158Z,99831.73
2019-02-27T22:52:19.302Z,99830.30
2019-02-27T22:55:24.714Z,99828.86
2019-02-27T22:58:30.601Z,99833.02
2019-02-27T23:01:52.108Z,99833.22
2019-02-27T23:04:58.131Z,99820.25
2019-02-27T23:08:05.046Z,99820.03
2019-02-27T23:11:10.960Z,99827.11
2019-02-27T23:14:18.906Z,99817.53
2019-02-27T23:17:24.588Z,99825.08
2019-02-27T23:20:30.520Z,99817.42
2019-02-27T23:23:37.416Z,99821.77
2019-02-27T23:26:43.448Z,99822.03
2019-02-27T23:29:49.471Z,99821.77
2019-02-27T23:32:55.400Z,99821.19
2019-02-27T23:36:01.244Z,99824.25
2019-02-27T23:39:09.515Z,99818.36
2019-02-27T23:42:15.566Z,99826.39
2019-02-27T23:45:21.594Z,99824.51
2019-02-27T23:48:27.498Z,99818.95
2019-02-27T23:51:33.408Z,99821.67
2019-02-27T23:54:39.375Z,99820.45
2019-02-27T23:57:47.144Z,99825.56
